createdAt,value
2023-03-03T00:02:14.137Z,38.05
2023-03-03T00:07:21.610Z,38.43
2023-03-03T00:12:26.376Z,38.72
2023-03-03T00:17:30.777Z,37.13
2023-03-03T00:22:36.746Z,37.22
2023-03-03T00:27:38.360Z,37.60
2023-03-03T00:32:47.165Z,36.38
2023-03-03T00:37:57.123Z,38.40
2023-03-03T00:43:00.580Z,34.08
2023-03-03T00:48:43.825Z,37.78
2023-03-03T00:53:45.778Z,38.08
2023-03-03T00:58:50.510Z,39.50
2023-03-03T01:03:54.448Z,40.83
2023-03-03T01:08:57.364Z,38.83
2023-03-03T01:13:59.430Z,40.97
2023-03-03T01:19:02.296Z,40.10
2023-03-03T01:24:04.080Z,42.20
2023-03-03T01:29:05.802Z,41.97
2023-03-03T01:34:08.351Z,38.97
2023-03-03T01:39:11.113Z,40.15
2023-03-03T01:44:16.472Z,40.13
2023-03-03T01:49:29.022Z,40.15
2023-03-03T01:54:44.113Z,40.13
2023-03-03T01:59:50.539Z,40.67
2023-03-03T02:04:52.321Z,39.35
2023-03-03T02:10:11.559Z,40.47
2023-03-03T02:15:37.333Z,40.30
2023-03-03T02:20:58.402Z,40.72
2023-03-03T02:26:11.521Z,40.78
2023-03-03T02:31:17.104Z,39.70
2023-03-03T02:36:26.731Z,38.78
2023-03-03T02:41:51.364Z,38.17
2023-03-03T02:46:54.780Z,39.50
2023-03-03T02:51:57.023Z,42.10
2023-03-03T02:57:02.468Z,41.58
2023-03-03T03:02:04.204Z,43.75
2023-03-03T03:07:06.043Z,41.50
2023-03-03T03:12:11.396Z,39.50
2023-03-03T03:17:14.810Z,39.85
2023-03-03T03:22:19.524Z,41.20
2023-03-03T03:27:23.457Z,39.35
2023-03-03T03:32:25.875Z,38.85
2023-03-03T03:37:27.793Z,41.57
2023-03-03T03:42:29.800Z,39.22
2023-03-03T03:47:32.760Z,41.45
2023-03-03T03:52:35.158Z,41.78
2023-03-03T03:57:38.643Z,41.53
2023-03-03T04:02:40.585Z,41.30
2023-03-03T04:07:46.486Z,41.67
2023-03-03T04:12:49.987Z,41.58
2023-03-03T04:17:52.658Z,42.40
2023-03-03T04:22:54.457Z,40.87
2023-03-03T04:27:56.349Z,40.50
2023-03-03T04:32:58.508Z,41.60
2023-03-03T04:38:02.158Z,38.83
2023-03-03T04:43:04.701Z,41.10
2023-03-03T04:48:07.866Z,40.50
2023-03-03T04:53:11.855Z,41.13
2023-03-03T04:58:15.984Z,41.10
2023-03-03T05:03:18.284Z,41.50
2023-03-03T05:08:20.362Z,41.83
2023-03-03T05:13:22.545Z,41.10
2023-03-03T05:18:25.739Z,39.95
2023-03-03T05:23:27.719Z,42.72
2023-03-03T05:28:29.492Z,41.00
2023-03-03T05:33:31.194Z,42.45
2023-03-03T05:38:33.585Z,38.70
2023-03-03T05:43:35.607Z,41.08
2023-03-03T05:48:37.308Z,41.63
2023-03-03T05:53:39.318Z,42.33
2023-03-03T05:58:41.727Z,41.87
2023-03-03T06:03:43.575Z,41.60
2023-03-03T06:08:45.963Z,40.63
2023-03-03T06:13:47.700Z,39.20
2023-03-03T06:18:50.659Z,42.63
2023-03-03T06:23:54.949Z,41.00
2023-03-03T06:29:01.535Z,38.75
2023-03-03T06:34:05.308Z,40.17
2023-03-03T06:39:07.253Z,40.13
2023-03-03T06:44:09.038Z,39.63
2023-03-03T06:49:10.703Z,40.15
2023-03-03T06:54:18.174Z,40.03
2023-03-03T06:59:23.719Z,42.03
2023-03-03T07:04:31.729Z,41.67
2023-03-03T07:09:33.525Z,42.67
2023-03-03T07:14:43.210Z,41.38
2023-03-03T07:19:45.613Z,41.60
2023-03-03T07:24:52.994Z,41.22
2023-03-03T07:30:16.106Z,42.88
2023-03-03T07:35:20.451Z,42.67
2023-03-03T07:40:37.297Z,40.97
2023-03-03T07:45:38.950Z,42.20
2023-03-03T07:50:41.470Z,40.57
2023-03-03T07:55:44.758Z,40.45
2023-03-03T08:01:18.554Z,42.13
2023-03-03T08:06:49.839Z,41.63
2023-03-03T08:12:06.761Z,38.85
2023-03-03T08:17:20.408Z,36.45
2023-03-03T08:22:30.322Z,37.67
2023-03-03T08:27:32.036Z,38.10
2023-03-03T08:32:33.768Z,37.03
2023-03-03T08:37:36.040Z,39.42
2023-03-03T08:42:37.668Z,36.72
2023-03-03T08:47:39.687Z,36.15
2023-03-03T08:52:41.561Z,36.47
2023-03-03T08:57:43.434Z,36.63
2023-03-03T09:02:45.167Z,37.60
2023-03-03T09:07:48.019Z,38.70
2023-03-03T09:12:50.175Z,37.67
2023-03-03T09:17:52.209Z,38.25
2023-03-03T09:22:54.626Z,36.80
2023-03-03T09:27:56.553Z,38.00
2023-03-03T09:32:58.395Z,36.08
2023-03-03T09:38:00.177Z,35.60
2023-03-03T09:43:12.695Z,35.23
2023-03-03T09:48:20.158Z,36.38
2023-03-03T09:54:05.097Z,35.10
2023-03-03T09:59:53.579Z,33.47
2023-03-03T10:05:20.058Z,34.03
2023-03-03T10:10:45.207Z,32.75
2023-03-03T10:16:11.570Z,32.50
2023-03-03T10:21:54.956Z,33.60
2023-03-03T10:32:33.212Z,32.63
2023-03-03T10:38:05.915Z,32.53
2023-03-03T10:43:45.547Z,32.22
2023-03-03T10:48:56.096Z,31.00
2023-03-03T10:54:10.017Z,32.72
2023-03-03T10:59:36.679Z,32.03
2023-03-03T11:05:00.228Z,32.38
2023-03-03T11:10:40.258Z,30.92
2023-03-03T11:16:24.365Z,31.83
2023-03-03T11:21:57.569Z,31.85
2023-03-03T11:27:20.233Z,32.67
2023-03-03T11:32:32.196Z,32.30
2023-03-03T11:38:05.593Z,33.00
2023-03-03T11:43:35.282Z,31.85
2023-03-03T11:48:43.510Z,31.17
2023-03-03T11:53:57.241Z,31.02
2023-03-03T11:59:17.485Z,30.02
2023-03-03T12:04:31.730Z,29.13
2023-03-03T12:09:56.318Z,28.98
2023-03-03T12:14:57.957Z,28.08
2023-03-03T12:20:13.790Z,28.85
2023-03-03T12:25:31.138Z,29.38
2023-03-03T12:30:48.551Z,31.10
2023-03-03T12:36:14.957Z,26.98
2023-03-03T12:41:39.168Z,28.52
2023-03-03T12:46:45.302Z,28.80
2023-03-03T12:52:08.638Z,26.85
2023-03-03T12:57:40.452Z,28.02
2023-03-03T13:02:58.614Z,28.08
2023-03-03T13:08:16.030Z,28.20
2023-03-03T13:13:39.377Z,28.20
2023-03-03T13:18:55.757Z,26.60
2023-03-03T13:24:16.398Z,25.02
2023-03-03T13:29:30.758Z,27.85
2023-03-03T13:35:02.049Z,28.38
2023-03-03T13:40:33.990Z,25.65
2023-03-03T13:45:35.793Z,28.45
2023-03-03T13:50:47.394Z,26.67
2023-03-03T13:56:22.767Z,28.67
2023-03-03T14:01:42.515Z,27.75
2023-03-03T14:06:52.747Z,27.95
2023-03-03T14:12:02.892Z,27.83
2023-03-03T14:17:18.455Z,27.95
2023-03-03T14:22:41.574Z,28.02
2023-03-03T14:28:01.753Z,29.02
2023-03-03T14:33:09.942Z,27.33
2023-03-03T14:38:16.529Z,28.85
2023-03-03T14:43:36.600Z,26.05
2023-03-03T14:48:51.043Z,27.95
2023-03-03T14:54:09.326Z,25.88
2023-03-03T14:59:23.954Z,28.30
2023-03-03T15:04:28.633Z,26.95
2023-03-03T15:09:48.665Z,27.38
2023-03-03T15:15:07.415Z,26.25
2023-03-03T15:20:32.519Z,27.13
2023-03-03T15:25:48.707Z,27.38
2023-03-03T15:31:32.346Z,26.27
2023-03-03T15:37:09.408Z,27.48
2023-03-03T15:42:22.688Z,26.92
2023-03-03T15:47:52.385Z,27.15
2023-03-03T15:53:04.713Z,26.40
2023-03-03T15:58:36.374Z,25.92
2023-03-03T16:03:46.404Z,25.77
2023-03-03T16:09:09.492Z,25.77
2023-03-03T16:14:39.053Z,27.85
2023-03-03T16:20:03.461Z,27.02
2023-03-03T16:25:33.777Z,24.17
2023-03-03T16:30:57.069Z,26.48
2023-03-03T16:36:03.510Z,26.48
2023-03-03T16:41:12.986Z,24.02
2023-03-03T16:46:37.184Z,22.45
2023-03-03T16:51:45.875Z,20.77
2023-03-03T16:57:09.161Z,22.48
2023-03-03T17:02:48.697Z,20.95
2023-03-03T17:08:00.895Z,18.73
2023-03-03T17:13:17.911Z,18.25
2023-03-03T17:18:49.406Z,21.02
2023-03-03T17:24:21.667Z,18.80
2023-03-03T17:29:39.481Z,19.52
2023-03-03T17:35:24.171Z,17.33
2023-03-03T17:40:37.237Z,17.77
2023-03-03T17:45:43.098Z,18.73
2023-03-03T17:51:06.417Z,18.73
2023-03-03T18:01:49.713Z,18.20
2023-03-03T18:07:10.020Z,19.13
2023-03-03T18:12:26.825Z,19.33
2023-03-03T18:17:54.325Z,18.35
2023-03-03T18:22:56.549Z,19.35
2023-03-03T18:33:08.859Z,19.23
2023-03-03T18:38:16.422Z,21.45
2023-03-03T18:43:57.331Z,17.63
2023-03-03T18:49:05.518Z,16.50
2023-03-03T18:54:22.221Z,16.80
2023-03-03T18:59:30.046Z,18.10
2023-03-03T19:04:36.422Z,18.95
2023-03-03T19:10:01.687Z,20.83
2023-03-03T19:15:27.661Z,22.55
2023-03-03T19:20:58.861Z,19.65
2023-03-03T19:26:30.613Z,22.02
2023-03-03T19:31:51.342Z,23.17
2023-03-03T19:37:10.926Z,23.58
2023-03-03T19:42:26.455Z,27.15
2023-03-03T19:47:40.073Z,26.40
2023-03-03T19:52:54.462Z,25.58
2023-03-03T19:58:12.265Z,24.50
2023-03-03T20:03:22.862Z,28.10
2023-03-03T20:08:53.529Z,23.63
2023-03-03T20:14:05.629Z,23.92
2023-03-03T20:19:20.321Z,23.80
2023-03-03T20:25:07.940Z,25.92
2023-03-03T20:30:50.547Z,28.08
2023-03-03T20:36:18.441Z,27.88
2023-03-03T20:41:38.629Z,26.00
2023-03-03T20:47:11.317Z,27.67
2023-03-03T20:52:30.224Z,27.00
2023-03-03T20:57:38.430Z,26.55
2023-03-03T21:02:43.975Z,24.88
2023-03-03T21:07:57.947Z,25.95
2023-03-03T21:13:39.484Z,26.98
2023-03-03T21:18:41.601Z,27.85
2023-03-03T21:23:43.767Z,30.90
2023-03-03T21:29:02.223Z,29.20
2023-03-03T21:34:19.532Z,28.60
2023-03-03T21:39:25.906Z,28.35
2023-03-03T21:44:46.587Z,28.45
2023-03-03T21:49:52.277Z,28.88
2023-03-03T21:54:54.680Z,28.67
2023-03-03T21:59:56.860Z,25.93
2023-03-03T22:04:59.342Z,24.75
2023-03-03T22:10:01.040Z,28.90
2023-03-03T22:15:02.860Z,25.25
2023-03-03T22:20:04.875Z,28.33
2023-03-03T22:25:07.538Z,28.65
2023-03-03T22:35:11.263Z,25.88
2023-03-03T22:40:14.498Z,27.65
2023-03-03T22:45:16.444Z,25.85
2023-03-03T22:50:19.404Z,25.83
2023-03-03T22:55:22.023Z,24.67
2023-03-03T23:05:25.675Z,24.83
2023-03-03T23:10:27.594Z,24.83
2023-03-03T23:15:29.449Z,25.20
2023-03-03T23:20:32.132Z,25.53
2023-03-03T23:25:34.374Z,25.88
2023-03-03T23:30:36.121Z,22.33
2023-03-03T23:35:38.291Z,22.85
2023-03-03T23:40:40.013Z,22.60
2023-03-03T23:45:42.151Z,22.33
2023-03-03T23:50:43.920Z,21.57
2023-03-03T23:55:45.813Z,21.03
